Time;durP1;ratioP1;P1;durP2;ratioP2;P2;SDS_P1;SDS_P2;PMS_P1;PMS_P2;Temp;Humidity;BMP_temperature;BMP_pressure;BME280_temperature;BME280_humidity;BME280_pressure;Samples;Min_cycle;Max_cycle;Signal;HPM_P1;HPM_P2
2023/12/25 00:01:48;;;;;;;;;4.25;2.50;;;;;-143.90;100.00;74448.69;4897225;28;104685;-74
2023/12/25 00:04:15;;;;;;;;;3.00;3.00;;;;;-143.90;100.00;74454.91;4895078;28;103894;-75
2023/12/25 00:06:41;;;;;;;;;3.50;3.50;;;;;-143.90;100.00;74444.56;4884736;28;102427;-74
2023/12/25 00:09:08;;;;;;;;;2.50;2.50;;;;;-143.90;100.00;74444.56;4881180;28;102525;-75
2023/12/25 00:11:35;;;;;;;;;3.00;2.50;;;;;-143.90;100.00;74448.69;4899643;28;102059;-73
2023/12/25 00:14:01;;;;;;;;;4.00;3.50;;;;;-143.90;100.00;74440.44;4899831;28;103999;-74
2023/12/25 00:16:28;;;;;;;;;4.50;3.50;;;;;-143.90;100.00;74436.28;4887309;28;104003;-74
2023/12/25 00:18:58;;;;;;;;;4.00;3.00;;;;;-143.90;100.00;74432.16;4889438;28;103780;-76
2023/12/25 00:21:26;;;;;;;;;5.00;3.00;;;;;-143.90;100.00;74436.28;4899630;28;102679;-74
2023/12/25 00:23:54;;;;;;;;;4.25;3.75;;;;;-143.90;100.00;74425.97;4898368;28;102988;-76
2023/12/25 00:26:21;;;;;;;;;3.00;3.00;;;;;-143.90;100.00;74428.03;4897615;28;102574;-75
2023/12/25 00:28:48;;;;;;;;;6.25;4.00;;;;;-143.90;100.00;74436.28;4872665;28;106059;-76
2023/12/25 00:31:14;;;;;;;;;6.00;4.00;;;;;-143.90;100.00;74432.16;4901769;28;102478;-76
2023/12/25 00:33:41;;;;;;;;;5.50;3.50;;;;;-143.90;100.00;74421.81;4896775;28;104066;-74
2023/12/25 00:36:08;;;;;;;;;7.25;4.25;;;;;-143.90;100.00;74434.22;4893863;28;103392;-75
2023/12/25 00:38:35;;;;;;;;;3.50;3.00;;;;;-143.90;100.00;74425.97;4882908;28;103274;-74
2023/12/25 00:41:01;;;;;;;;;3.00;3.00;;;;;-143.90;100.00;74425.97;4897063;28;102480;-73
2023/12/25 00:43:28;;;;;;;;;6.50;5.00;;;;;-143.90;100.00;74428.03;4883803;28;103395;-75
2023/12/25 00:45:55;;;;;;;;;4.25;3.75;;;;;-143.90;100.00;74428.03;4895101;28;102767;-75
2023/12/25 00:48:22;;;;;;;;;3.75;3.00;;;;;-143.90;100.00;74423.88;4900142;28;102611;-74
2023/12/25 00:50:49;;;;;;;;;6.00;4.50;;;;;-143.90;100.00;74430.09;4893876;28;102264;-74
2023/12/25 00:53:16;;;;;;;;;4.00;3.25;;;;;-143.90;100.00;74417.69;4897864;28;103695;-75
2023/12/25 00:55:42;;;;;;;;;4.00;4.00;;;;;-143.90;100.00;74423.88;4897730;28;102410;-74
2023/12/25 00:58:09;;;;;;;;;5.00;4.00;;;;;-143.90;100.00;74419.75;4896809;28;103869;-74
2023/12/25 01:00:36;;;;;;;;;2.75;2.00;;;;;-143.90;100.00;74423.88;4879910;28;102334;-73
2023/12/25 01:03:02;;;;;;;;;3.00;3.00;;;;;-143.90;100.00;74409.41;4894116;28;104117;-74
2023/12/25 01:05:29;;;;;;;;;4.00;3.25;;;;;-143.90;100.00;74425.97;4896379;28;102119;-73
2023/12/25 01:07:56;;;;;;;;;3.00;3.00;;;;;-143.90;100.00;74419.75;4880039;28;102118;-76
2023/12/25 01:10:23;;;;;;;;;2.75;2.75;;;;;-143.90;100.00;74397.03;4898418;28;102823;-75
2023/12/25 01:12:50;;;;;;;;;3.50;3.25;;;;;-143.90;100.00;74409.41;4708837;28;5001460;-74
2023/12/25 01:15:16;;;;;;;;;4.00;3.00;;;;;-143.90;100.00;74411.50;4891993;28;104056;-74
2023/12/25 01:17:43;;;;;;;;;3.00;3.00;;;;;-143.90;100.00;74403.22;4893456;28;102447;-74
2023/12/25 01:20:10;;;;;;;;;2.00;1.00;;;;;-143.90;100.00;74417.69;4889123;28;105683;-76
2023/12/25 01:22:37;;;;;;;;;2.50;2.00;;;;;-143.90;100.00;74411.50;4880287;28;105298;-78
2023/12/25 01:25:04;;;;;;;;;3.75;2.00;;;;;-143.90;100.00;74409.41;4894421;28;102803;-75
2023/12/25 01:27:31;;;;;;;;;3.00;3.00;;;;;-143.90;100.00;74409.41;4892128;28;102988;-76
2023/12/25 01:29:57;;;;;;;;;4.00;4.00;;;;;-143.90;100.00;74403.22;4896332;28;106148;-75
2023/12/25 01:32:24;;;;;;;;;2.50;2.00;;;;;-143.90;100.00;74394.94;4892543;28;103870;-75
2023/12/25 01:34:51;;;;;;;;;1.00;1.00;;;;;-143.90;100.00;74394.94;4885769;28;103613;-75
2023/12/25 01:37:18;;;;;;;;;3.00;2.00;;;;;-143.90;100.00;74394.94;4894090;28;102362;-75
2023/12/25 01:39:48;;;;;;;;;2.00;2.00;;;;;-143.90;100.00;74382.56;4898160;28;102478;-74
2023/12/25 01:42:16;;;;;;;;;2.75;2.00;;;;;-143.90;100.00;74378.41;4899733;28;104265;-74
2023/12/25 01:44:42;;;;;;;;;3.00;3.00;;;;;-143.90;100.00;74382.56;4888336;28;103476;-75
2023/12/25 01:47:09;;;;;;;;;3.25;2.00;;;;;-143.90;100.00;74370.16;4896976;28;102826;-76
2023/12/25 01:49:36;;;;;;;;;1.75;1.75;;;;;-143.90;100.00;74366.00;4886795;28;102539;-77
2023/12/25 01:52:03;;;;;;;;;1.00;1.00;;;;;-143.90;100.00;74357.75;4886305;28;103684;-75
2023/12/25 01:54:31;;;;;;;;;2.00;1.25;;;;;-143.90;100.00;74368.09;4886146;28;102039;-74
2023/12/25 01:56:58;;;;;;;;;2.00;2.00;;;;;-143.90;100.00;74353.63;4890912;28;102433;-74
2023/12/25 01:59:29;;;;;;;;;2.50;2.50;;;;;-143.90;100.00;74347.41;4899207;28;102551;-76
2023/12/25 02:01:58;;;;;;;;;3.00;2.00;;;;;-143.90;100.00;74347.41;4893701;28;103955;-77
2023/12/25 02:04:26;;;;;;;;;2.00;2.00;;;;;-143.90;100.00;74341.22;4893335;28;103816;-75
2023/12/25 02:06:54;;;;;;;;;3.00;2.50;;;;;-143.90;100.00;74345.34;4896652;28;102454;-74
2023/12/25 02:09:21;;;;;;;;;1.00;1.00;;;;;-143.90;100.00;74335.00;4902129;28;102093;-75
2023/12/25 02:11:48;;;;;;;;;2.00;2.00;;;;;-143.90;100.00;74341.22;4904244;28;104332;-77
2023/12/25 02:14:16;;;;;;;;;1.50;1.50;;;;;-143.90;100.00;74339.16;4905483;28;102321;-75
2023/12/25 02:16:43;;;;;;;;;3.00;2.00;;;;;-143.90;100.00;74341.22;4870141;28;102657;-75
2023/12/25 02:19:32;;;;;;;;;1.00;1.00;;;;;-143.90;100.00;74343.28;4904406;28;104707;-74
2023/12/25 02:21:59;;;;;;;;;2.25;2.25;;;;;-143.90;100.00;74343.28;4896742;28;108504;-74
2023/12/25 02:24:33;;;;;;;;;2.00;2.00;;;;;-143.90;100.00;74330.88;4896039;28;102644;-73
2023/12/25 02:27:00;;;;;;;;;1.00;1.00;;;;;-143.90;100.00;74345.34;4903730;28;102297;-75
2023/12/25 02:29:27;;;;;;;;;4.00;2.00;;;;;-143.90;100.00;74345.34;4902868;28;102239;-74
2023/12/25 02:31:53;;;;;;;;;2.00;1.50;;;;;-143.90;100.00;74328.81;4882113;28;104012;-75
2023/12/25 02:34:20;;;;;;;;;3.00;3.00;;;;;-143.90;100.00;74328.81;4897389;28;102508;-76
2023/12/25 02:36:47;;;;;;;;;2.00;2.00;;;;;-143.90;100.00;74328.81;4883454;28;102757;-75
2023/12/25 02:39:13;;;;;;;;;2.00;2.00;;;;;-143.90;100.00;74324.69;4894133;28;109009;-74
2023/12/25 02:41:40;;;;;;;;;1.00;1.00;;;;;-143.90;100.00;74322.59;4895290;28;103896;-74
2023/12/25 02:44:06;;;;;;;;;2.00;1.00;;;;;-143.90;100.00;74314.34;4897836;28;102147;-76
2023/12/25 02:46:33;;;;;;;;;2.00;1.75;;;;;-143.90;100.00;74320.53;4883261;28;102258;-74
2023/12/25 02:49:00;;;;;;;;;1.00;1.00;;;;;-143.90;100.00;74322.59;4898252;28;102582;-76
2023/12/25 02:51:27;;;;;;;;;1.00;1.00;;;;;-143.90;100.00;74308.13;4897767;28;104401;-76
2023/12/25 02:53:53;;;;;;;;;2.75;2.00;;;;;-143.90;100.00;74310.22;4901797;28;103921;-76
2023/12/25 02:56:20;;;;;;;;;2.00;1.50;;;;;-143.90;100.00;74310.22;4896654;28;102363;-76
2023/12/25 02:58:46;;;;;;;;;1.00;1.00;;;;;-143.90;100.00;74306.06;4890369;28;102645;-75
2023/12/25 03:01:14;;;;;;;;;1.25;1.25;;;;;-143.90;100.00;74304.00;4878978;28;104223;-76
2023/12/25 03:03:40;;;;;;;;;1.00;1.00;;;;;-143.90;100.00;74295.75;4898373;28;102603;-75
2023/12/25 03:06:08;;;;;;;;;1.75;1.75;;;;;-143.90;100.00;74285.41;4897675;28;102266;-76
2023/12/25 03:08:35;;;;;;;;;1.00;1.00;;;;;-143.90;100.00;74287.47;4888159;28;102456;-75
2023/12/25 03:11:02;;;;;;;;;5.00;2.00;;;;;-143.90;100.00;74273.00;4897938;28;104268;-75
2023/12/25 03:13:28;;;;;;;;;1.00;1.00;;;;;-143.90;100.00;74260.59;4894661;28;102526;-75
2023/12/25 03:15:55;;;;;;;;;1.00;1.00;;;;;-143.90;100.00;74264.72;4900065;28;102284;-75
2023/12/25 03:18:22;;;;;;;;;1.00;1.00;;;;;-143.90;100.00;74270.94;4903829;28;102228;-76
2023/12/25 03:20:49;;;;;;;;;1.00;1.00;;;;;-143.90;100.00;74273.00;4890114;28;109471;-76
2023/12/25 03:23:16;;;;;;;;;1.00;1.00;;;;;-143.90;100.00;74275.06;4881349;28;104758;-76
2023/12/25 03:25:42;;;;;;;;;1.50;1.00;;;;;-143.90;100.00;74270.94;4899996;28;102496;-76
2023/12/25 03:28:09;;;;;;;;;1.50;1.25;;;;;-143.90;100.00;74277.13;4898196;28;102646;-76
2023/12/25 03:30:35;;;;;;;;;1.50;1.50;;;;;-143.90;100.00;74262.66;4886184;28;103512;-75
2023/12/25 03:33:02;;;;;;;;;2.50;2.00;;;;;-143.90;100.00;74270.94;4881209;28;102112;-76
2023/12/25 03:35:29;;;;;;;;;1.00;1.00;;;;;-143.90;100.00;74277.13;4899000;28;102468;-75
2023/12/25 03:37:55;;;;;;;;;0.25;0.25;;;;;-143.90;100.00;74279.22;4899476;28;102630;-75
2023/12/25 03:40:22;;;;;;;;;1.00;1.00;;;;;-143.90;100.00;74270.94;4893844;28;104148;-75
2023/12/25 03:42:49;;;;;;;;;1.00;1.00;;;;;-143.90;100.00;74270.94;4892322;28;102462;-76
2023/12/25 03:45:15;;;;;;;;;1.00;1.00;;;;;-143.90;100.00;74283.34;4895666;28;102442;-77
2023/12/25 03:47:42;;;;;;;;;0.00;0.00;;;;;-143.90;100.00;74270.94;4899741;28;102268;-75
2023/12/25 03:50:09;;;;;;;;;1.50;1.00;;;;;-143.90;100.00;74266.81;4898614;28;105051;-76
2023/12/25 03:52:36;;;;;;;;;1.50;0.00;;;;;-143.90;100.00;74262.66;4888690;28;102757;-74
2023/12/25 03:55:03;;;;;;;;;1.75;1.25;;;;;-143.90;100.00;74273.00;4893340;28;103941;-75
2023/12/25 03:57:29;;;;;;;;;1.00;1.00;;;;;-143.90;100.00;74264.72;4893713;28;104227;-75
2023/12/25 03:59:56;;;;;;;;;2.00;2.00;;;;;-143.90;100.00;74266.81;4897579;28;104091;-75
2023/12/25 04:02:24;;;;;;;;;2.50;1.00;;;;;-143.90;100.00;74258.53;4896725;28;102543;-75
2023/12/25 04:04:50;;;;;;;;;1.00;1.00;;;;;-143.90;100.00;74262.66;4889860;28;102570;-75
2023/12/25 04:07:17;;;;;;;;;0.00;0.00;;;;;-143.90;100.00;74266.81;4897620;28;102235;-76
2023/12/25 04:09:44;;;;;;;;;0.00;0.00;;;;;-143.90;100.00;74266.81;4897893;28;103620;-75
2023/12/25 04:12:10;;;;;;;;;1.00;1.00;;;;;-143.90;100.00;74270.94;4896723;28;104129;-75
2023/12/25 04:14:38;;;;;;;;;1.00;0.50;;;;;-143.90;100.00;74275.06;4880374;28;102362;-75
2023/12/25 04:17:05;;;;;;;;;2.00;1.00;;;;;-143.90;100.00;74279.22;4899429;28;102043;-76
2023/12/25 04:19:32;;;;;;;;;3.25;0.00;;;;;-143.90;100.00;74283.34;4898405;28;104054;-75
2023/12/25 04:21:59;;;;;;;;;1.00;1.00;;;;;-143.90;100.00;74281.28;4896063;28;104944;-75
2023/12/25 04:24:25;;;;;;;;;1.00;1.00;;;;;-143.90;100.00;74293.66;4897794;28;104853;-74
2023/12/25 04:26:52;;;;;;;;;1.00;1.00;;;;;-143.90;100.00;74297.81;4892683;28;102461;-74
2023/12/25 04:29:19;;;;;;;;;1.00;1.00;;;;;-143.90;100.00;74308.13;4887088;28;108856;-73
2023/12/25 04:31:45;;;;;;;;;0.50;0.50;;;;;-143.90;100.00;74310.22;4897912;28;103012;-74
2023/12/25 04:34:16;;;;;;;;;0.50;0.50;;;;;-143.90;100.00;74326.75;4892900;28;102296;-74
2023/12/25 04:36:43;;;;;;;;;0.00;0.00;;;;;-143.90;100.00;74322.59;4889082;28;102613;-75
2023/12/25 04:39:11;;;;;;;;;0.75;0.75;;;;;-143.90;100.00;74326.75;4898186;28;104088;-74
2023/12/25 04:41:37;;;;;;;;;0.00;0.00;;;;;-143.90;100.00;74330.88;4897494;28;102744;-74
2023/12/25 04:44:04;;;;;;;;;0.50;0.00;;;;;-143.90;100.00;74341.22;4901880;28;102849;-75
2023/12/25 04:46:31;;;;;;;;;1.00;1.00;;;;;-143.90;100.00;74332.94;4888626;28;103026;-75
2023/12/25 04:48:57;;;;;;;;;1.00;1.00;;;;;-143.90;100.00;74332.94;4893404;28;104194;-75
2023/12/25 04:51:24;;;;;;;;;2.25;2.00;;;;;-143.90;100.00;74332.94;4896612;28;102987;-74
2023/12/25 04:53:51;;;;;;;;;0.50;0.50;;;;;-143.90;100.00;74332.94;4898313;28;102674;-74
2023/12/25 04:56:18;;;;;;;;;2.00;1.50;;;;;-143.90;100.00;74341.22;4897043;28;102362;-74
2023/12/25 04:58:44;;;;;;;;;0.50;0.50;;;;;-143.90;100.00;74341.22;4888901;28;104687;-73
2023/12/25 05:01:11;;;;;;;;;1.00;1.00;;;;;-143.90;100.00;74339.16;4897252;28;102457;-76
2023/12/25 05:03:38;;;;;;;;;0.50;0.00;;;;;-143.90;100.00;74347.41;4893703;28;102593;-75
2023/12/25 05:06:04;;;;;;;;;0.25;0.00;;;;;-143.90;100.00;74355.69;4900202;28;103615;-74
2023/12/25 05:08:31;;;;;;;;;1.25;1.00;;;;;-143.90;100.00;74361.88;4878848;28;104169;-76
2023/12/25 05:10:58;;;;;;;;;1.75;1.50;;;;;-143.90;100.00;74355.69;4899271;28;102640;-75
2023/12/25 05:13:24;;;;;;;;;3.00;2.75;;;;;-143.90;100.00;74349.47;4888616;28;104268;-75
2023/12/25 05:15:51;;;;;;;;;1.75;1.75;;;;;-143.90;100.00;74357.75;4903721;28;102306;-75
2023/12/25 05:18:17;;;;;;;;;1.00;1.00;;;;;-143.90;100.00;74353.63;4899222;28;104048;-76
2023/12/25 05:20:44;;;;;;;;;2.00;2.00;;;;;-143.90;100.00;74361.88;4888119;28;102102;-75
2023/12/25 05:23:11;;;;;;;;;2.25;2.00;;;;;-143.90;100.00;74361.88;4900725;28;102526;-75
2023/12/25 05:25:37;;;;;;;;;1.50;1.50;;;;;-143.90;100.00;74355.69;4901137;28;102397;-75
2023/12/25 05:28:05;;;;;;;;;2.00;2.00;;;;;-143.90;100.00;74355.69;4900476;28;104268;-76
2023/12/25 05:30:31;;;;;;;;;2.00;1.50;;;;;-143.90;100.00;74353.63;4888765;28;102037;-75
2023/12/25 05:32:58;;;;;;;;;2.00;1.00;;;;;-143.90;100.00;74361.88;4896884;28;102404;-76
2023/12/25 05:35:25;;;;;;;;;2.00;1.25;;;;;-143.90;100.00;74361.88;4901579;28;102690;-74
2023/12/25 05:37:51;;;;;;;;;2.75;2.00;;;;;-143.90;100.00;74368.09;4888247;28;108702;-74
2023/12/25 05:40:18;;;;;;;;;3.00;2.00;;;;;-143.90;100.00;74372.22;4896913;28;105087;-76
2023/12/25 05:42:45;;;;;;;;;1.00;1.00;;;;;-143.90;100.00;74366.00;4893867;28;104634;-74
2023/12/25 05:45:11;;;;;;;;;1.25;1.25;;;;;-143.90;100.00;74372.22;4898525;28;103740;-75
2023/12/25 05:47:39;;;;;;;;;3.50;3.00;;;;;-143.90;100.00;74366.00;4898145;28;104312;-74
2023/12/25 05:50:09;;;;;;;;;1.00;1.00;;;;;-143.90;100.00;74349.47;4901597;28;102655;-73
2023/12/25 05:52:36;;;;;;;;;1.50;1.00;;;;;-143.90;100.00;74349.47;4872477;28;104091;-74
2023/12/25 05:55:03;;;;;;;;;3.00;3.00;;;;;-143.90;100.00;74353.63;4898259;28;102567;-75
2023/12/25 05:57:29;;;;;;;;;2.00;2.00;;;;;-143.90;100.00;74351.53;4902437;28;103457;-76
2023/12/25 05:59:56;;;;;;;;;2.75;2.00;;;;;-143.90;100.00;74357.75;4900921;28;102669;-75
2023/12/25 06:02:23;;;;;;;;;1.00;1.00;;;;;-143.90;100.00;74355.69;4898096;28;102793;-77
2023/12/25 06:04:50;;;;;;;;;2.00;1.75;;;;;-143.90;100.00;74359.81;4877963;28;103805;-74
2023/12/25 06:07:17;;;;;;;;;1.50;1.00;;;;;-143.90;100.00;74374.28;4898123;28;104438;-75
2023/12/25 06:09:44;;;;;;;;;2.25;1.75;;;;;-143.90;100.00;74357.75;4899540;28;102197;-74
2023/12/25 06:12:11;;;;;;;;;3.00;2.00;;;;;-143.90;100.00;74361.88;4897144;28;102497;-74
2023/12/25 06:14:37;;;;;;;;;3.00;2.00;;;;;-143.90;100.00;74357.75;4889980;28;102564;-75
2023/12/25 06:17:04;;;;;;;;;0.00;0.00;;;;;-143.90;100.00;74349.47;4879176;28;104095;-75
2023/12/25 06:19:31;;;;;;;;;3.00;3.00;;;;;-143.90;100.00;74341.22;4899598;28;103136;-74
2023/12/25 06:21:58;;;;;;;;;2.25;2.00;;;;;-143.90;100.00;74337.06;4899727;28;102307;-74
2023/12/25 06:24:24;;;;;;;;;0.50;0.00;;;;;-143.90;100.00;74341.22;4895081;28;103968;-75
2023/12/25 06:26:51;;;;;;;;;2.00;2.00;;;;;-143.90;100.00;74337.06;4890287;28;108437;-76
2023/12/25 06:29:18;;;;;;;;;1.75;0.00;;;;;-143.90;100.00;74351.53;4897818;28;102127;-75
2023/12/25 06:31:46;;;;;;;;;1.00;1.00;;;;;-143.90;100.00;74330.88;4894287;28;104977;-75
2023/12/25 06:34:13;;;;;;;;;1.75;1.00;;;;;-143.90;100.00;74341.22;4889087;28;102472;-75
2023/12/25 06:36:40;;;;;;;;;1.50;1.50;;;;;-143.90;100.00;74320.53;4874830;28;104063;-76
2023/12/25 06:39:07;;;;;;;;;1.25;1.25;;;;;-143.90;100.00;74326.75;4899774;28;102261;-75
2023/12/25 06:41:35;;;;;;;;;2.50;1.75;;;;;-143.90;100.00;74341.22;4902746;28;102612;-76
2023/12/25 06:44:01;;;;;;;;;1.75;1.00;;;;;-143.90;100.00;74343.28;4903386;28;102085;-76
2023/12/25 06:46:28;;;;;;;;;1.00;1.00;;;;;-143.90;100.00;74355.69;4886580;28;104181;-75
2023/12/25 06:48:55;;;;;;;;;2.00;1.00;;;;;-143.90;100.00;74351.53;4894538;28;104146;-75
2023/12/25 06:51:22;;;;;;;;;1.25;1.00;;;;;-143.90;100.00;74357.75;4896649;28;102103;-75
2023/12/25 06:53:50;;;;;;;;;1.75;1.00;;;;;-143.90;100.00;74378.41;4901474;28;104195;-76
2023/12/25 06:56:16;;;;;;;;;1.50;1.00;;;;;-143.90;100.00;74372.22;4897668;28;104227;-73
2023/12/25 06:58:43;;;;;;;;;0.00;0.00;;;;;-143.90;100.00;74363.94;4890008;28;102682;-75
2023/12/25 07:01:10;;;;;;;;;1.00;1.00;;;;;-143.90;100.00;74370.16;4902763;28;102407;-74
2023/12/25 07:03:36;;;;;;;;;1.00;1.00;;;;;-143.90;100.00;74380.47;4896617;28;102665;-76
2023/12/25 07:06:06;;;;;;;;;1.25;1.25;;;;;-143.90;100.00;74376.34;4897926;28;104086;-75
2023/12/25 07:08:33;;;;;;;;;1.50;1.50;;;;;-143.90;100.00;74376.34;4872775;28;103303;-74
2023/12/25 07:11:00;;;;;;;;;1.50;1.50;;;;;-143.90;100.00;74366.00;4900352;28;102817;-75
2023/12/25 07:13:26;;;;;;;;;2.00;1.25;;;;;-143.90;100.00;74366.00;4898775;28;102757;-74
2023/12/25 07:15:53;;;;;;;;;1.50;1.50;;;;;-143.90;100.00;74376.34;4882984;28;104518;-76
2023/12/25 07:18:20;;;;;;;;;1.00;1.00;;;;;-143.90;100.00;74366.00;4896642;28;105657;-74
2023/12/25 07:20:46;;;;;;;;;1.00;1.00;;;;;-143.90;100.00;74374.28;4885757;28;103432;-73
2023/12/25 07:23:14;;;;;;;;;2.00;2.00;;;;;-143.90;100.00;74376.34;4882617;28;102070;-76
2023/12/25 07:25:40;;;;;;;;;2.25;2.00;;;;;-143.90;100.00;74366.00;4898036;28;106373;-74
2023/12/25 07:28:08;;;;;;;;;1.75;1.00;;;;;-143.90;100.00;74366.00;4900312;28;103331;-75
2023/12/25 07:30:34;;;;;;;;;3.00;3.00;;;;;-143.90;100.00;74361.88;4887594;28;103031;-75
2023/12/25 07:33:01;;;;;;;;;1.00;0.50;;;;;-143.90;100.00;74361.88;4894979;28;102434;-76
2023/12/25 07:35:28;;;;;;;;;0.25;0.25;;;;;-143.90;100.00;74370.16;4898836;28;104070;-76
2023/12/25 07:37:55;;;;;;;;;1.75;1.50;;;;;-143.90;100.00;74374.28;4898460;28;104249;-74
2023/12/25 07:40:22;;;;;;;;;1.50;1.00;;;;;-143.90;100.00;74370.16;4900866;28;102390;-75
2023/12/25 07:42:52;;;;;;;;;0.75;0.50;;;;;-143.90;100.00;74370.16;4893225;28;102644;-75
2023/12/25 07:45:18;;;;;;;;;3.50;2.25;;;;;-143.90;100.00;74366.00;4898531;28;105494;-74
2023/12/25 07:47:45;;;;;;;;;3.50;3.00;;;;;-143.90;100.00;74359.81;4896493;28;104332;-74
2023/12/25 07:50:12;;;;;;;;;5.00;4.25;;;;;-143.90;100.00;74349.47;4895078;28;103537;-76
2023/12/25 07:52:38;;;;;;;;;2.50;1.25;;;;;-143.90;100.00;74345.34;4886896;28;102696;-75
2023/12/25 07:55:05;;;;;;;;;3.00;2.75;;;;;-143.90;100.00;74355.69;4887362;28;104027;-75
2023/12/25 07:57:32;;;;;;;;;2.00;2.00;;;;;-143.90;100.00;74345.34;4898237;28;102115;-75
2023/12/25 07:59:58;;;;;;;;;2.25;2.00;;;;;-143.90;100.00;74343.28;4894646;28;102492;-74
2023/12/25 08:02:26;;;;;;;;;2.00;1.50;;;;;-143.90;100.00;74345.34;4894676;28;102517;-76
2023/12/25 08:04:52;;;;;;;;;3.00;2.75;;;;;-143.90;100.00;74349.47;4889075;28;103667;-75
2023/12/25 08:07:19;;;;;;;;;1.00;1.00;;;;;-143.90;100.00;74349.47;4895659;28;104183;-76
2023/12/25 08:09:47;;;;;;;;;3.00;2.00;;;;;-143.90;100.00;74341.22;4897664;28;102458;-75
2023/12/25 08:12:14;;;;;;;;;1.00;1.00;;;;;-143.90;100.00;74345.34;4900120;28;102051;-75
2023/12/25 08:14:41;;;;;;;;;3.00;2.00;;;;;-143.90;100.00;74332.94;4882649;28;103880;-77
2023/12/25 08:17:07;;;;;;;;;1.25;1.25;;;;;-143.90;100.00;74322.59;4886088;28;103556;-75
2023/12/25 08:19:34;;;;;;;;;2.75;1.00;;;;;-143.90;100.00;74326.75;4890753;28;103166;-74
2023/12/25 08:22:01;;;;;;;;;3.00;3.00;;;;;-143.90;100.00;74324.69;4896360;28;103704;-76
2023/12/25 08:24:27;;;;;;;;;2.00;1.00;;;;;-143.90;100.00;74310.22;4892287;28;104164;-74
2023/12/25 08:26:54;;;;;;;;;2.00;2.00;;;;;-143.90;100.00;74299.88;4894520;28;102043;-75
2023/12/25 08:29:21;;;;;;;;;2.00;1.00;;;;;-143.90;100.00;74295.75;4900089;28;103672;-76
2023/12/25 08:31:48;;;;;;;;;2.00;2.00;;;;;-143.90;100.00;74301.94;4899963;28;102401;-75
2023/12/25 08:34:14;;;;;;;;;3.75;3.00;;;;;-143.90;100.00;74297.81;4895462;28;104077;-76
2023/12/25 08:36:41;;;;;;;;;1.00;1.00;;;;;-143.90;100.00;74306.06;4886344;28;105130;-76
2023/12/25 08:39:07;;;;;;;;;1.25;1.25;;;;;-143.90;100.00;74308.13;4900094;28;102389;-75
2023/12/25 08:41:34;;;;;;;;;1.25;1.00;;;;;-143.90;100.00;74324.69;4891573;28;102733;-76
2023/12/25 08:44:01;;;;;;;;;2.75;2.75;;;;;-143.90;100.00;74324.69;4899847;28;104025;-75
2023/12/25 08:46:27;;;;;;;;;3.00;2.00;;;;;-143.90;100.00;74326.75;4892837;28;101979;-75
2023/12/25 08:48:54;;;;;;;;;2.00;1.00;;;;;-143.90;100.00;74326.75;4899340;28;102295;-77
2023/12/25 08:51:21;;;;;;;;;2.00;1.75;;;;;-143.90;100.00;74312.28;4900789;28;102725;-76
2023/12/25 08:53:47;;;;;;;;;1.75;1.75;;;;;-143.90;100.00;74316.41;4900073;28;104267;-75
2023/12/25 08:56:26;;;;;;;;;0.50;0.50;;;;;-143.90;100.00;74312.28;4903947;28;103464;-75
2023/12/25 08:58:52;;;;;;;;;3.25;2.00;;;;;-143.90;100.00;74324.69;4886686;28;102281;-77
2023/12/25 09:01:22;;;;;;;;;1.25;1.00;;;;;-143.90;100.00;74337.06;4900494;28;102800;-76
2023/12/25 09:03:49;;;;;;;;;2.00;1.25;;;;;-143.90;100.00;74337.06;4893579;28;104062;-74
2023/12/25 09:06:15;;;;;;;;;2.50;2.00;;;;;-143.90;100.00;74341.22;4897640;28;102260;-75
2023/12/25 09:08:42;;;;;;;;;4.00;2.00;;;;;-143.90;100.00;74347.41;4887222;28;102859;-76
2023/12/25 09:11:09;;;;;;;;;1.00;1.00;;;;;-143.90;100.00;74355.69;4899496;28;104567;-75
2023/12/25 09:13:36;;;;;;;;;4.00;1.75;;;;;-143.90;100.00;74349.47;4900733;28;104793;-76
2023/12/25 09:16:03;;;;;;;;;3.25;3.00;;;;;-143.90;100.00;74351.53;4898639;28;102091;-75
2023/12/25 09:18:30;;;;;;;;;2.50;2.00;;;;;-143.90;100.00;74366.00;4888604;28;102279;-76
2023/12/25 09:20:57;;;;;;;;;2.25;1.25;;;;;-143.90;100.00;74345.34;4902178;28;102195;-77
2023/12/25 09:23:24;;;;;;;;;2.75;2.00;;;;;-143.90;100.00;74349.47;4898261;28;109245;-76
2023/12/25 09:25:51;;;;;;;;;1.75;0.75;;;;;-143.90;100.00;74341.22;4894106;28;102474;-76
2023/12/25 09:28:18;;;;;;;;;3.00;3.00;;;;;-143.90;100.00;74328.81;4893653;28;104116;-76
2023/12/25 09:30:45;;;;;;;;;5.75;3.00;;;;;-143.90;100.00;74341.22;4886148;28;102902;-77
2023/12/25 09:33:12;;;;;;;;;9.75;8.50;;;;;-143.90;100.00;74355.69;4894399;28;104122;-76
2023/12/25 09:35:39;;;;;;;;;4.50;4.00;;;;;-143.90;100.00;74349.47;4889176;28;104679;-76
2023/12/25 09:38:05;;;;;;;;;4.00;3.00;;;;;-143.90;100.00;74357.75;4882614;28;102222;-77
2023/12/25 09:40:32;;;;;;;;;3.00;3.00;;;;;-143.90;100.00;74361.88;4867182;28;102090;-77
2023/12/25 09:43:01;;;;;;;;;4.25;2.25;;;;;-143.90;100.00;74359.81;4898362;28;103317;-75
2023/12/25 09:45:33;;;;;;;;;2.25;2.25;;;;;-143.90;100.00;74363.94;4898494;28;102947;-74
2023/12/25 09:48:00;;;;;;;;;4.50;3.00;;;;;-143.90;100.00;74370.16;4896073;28;102457;-74
2023/12/25 09:50:30;;;;;;;;;3.50;3.00;;;;;-143.90;100.00;74374.28;4898287;28;104094;-77
2023/12/25 09:52:57;;;;;;;;;2.00;2.00;;;;;-143.90;100.00;74366.00;4892960;28;108709;-75
2023/12/25 09:55:24;;;;;;;;;3.00;2.00;;;;;-143.90;100.00;74359.81;4902768;28;101969;-75
2023/12/25 09:57:52;;;;;;;;;2.50;2.50;;;;;-143.90;100.00;74355.69;4902535;28;103936;-78
2023/12/25 10:00:20;;;;;;;;;2.50;2.00;;;;;-143.90;100.00;74363.94;4902864;28;102294;-79
2023/12/25 10:02:49;;;;;;;;;2.75;2.00;;;;;-143.90;100.00;74361.88;4891460;28;104043;-76
2023/12/25 10:05:18;;;;;;;;;2.75;2.00;;;;;-143.90;100.00;74374.28;4899624;28;104030;-74
2023/12/25 10:07:48;;;;;;;;;4.00;2.00;;;;;-143.90;100.00;74368.09;4892133;28;103436;-76
2023/12/25 10:10:15;;;;;;;;;4.00;3.75;;;;;-143.90;100.00;74374.28;4903881;28;102644;-76
2023/12/25 10:12:43;;;;;;;;;2.00;2.00;;;;;-143.90;100.00;74355.69;4891909;28;103206;-76
2023/12/25 10:15:12;;;;;;;;;9.00;7.00;;;;;-143.90;100.00;74363.94;4899568;28;102945;-75
2023/12/25 10:17:39;;;;;;;;;50.75;32.25;;;;;-143.90;100.00;74366.00;4904666;28;102602;-76
2023/12/25 10:20:08;;;;;;;;;20.25;16.75;;;;;-143.90;100.00;74357.75;4882882;28;102833;-75
2023/12/25 10:22:40;;;;;;;;;71.50;47.75;;;;;-143.90;100.00;74345.34;4891411;28;105191;-76
2023/12/25 10:25:09;;;;;;;;;24.75;17.50;;;;;-143.90;100.00;74347.41;4902513;28;102636;-77
2023/12/25 10:27:42;;;;;;;;;28.50;22.50;;;;;-143.90;100.00;74343.28;4893376;28;102166;-76
2023/12/25 10:30:25;;;;;;;;;12.50;11.00;;;;;-143.90;100.00;74339.16;4897951;28;104952;-75
2023/12/25 10:33:13;;;;;;;;;20.75;17.75;;;;;-143.90;100.00;74339.16;4883692;28;104279;-76
2023/12/25 10:35:41;;;;;;;;;7.50;6.50;;;;;-143.90;100.00;74335.00;4901368;28;102160;-75
2023/12/25 10:38:20;;;;;;;;;7.00;5.00;;;;;-143.90;100.00;74326.75;4906013;28;102418;-75
2023/12/25 10:40:47;;;;;;;;;3.00;3.00;;;;;-143.90;100.00;74312.28;4897657;28;102510;-75
2023/12/25 10:43:14;;;;;;;;;3.00;3.00;;;;;-143.90;100.00;74308.13;4904232;28;103187;-76
2023/12/25 10:45:42;;;;;;;;;3.75;3.00;;;;;-143.90;100.00;74320.53;4902913;28;102376;-75
2023/12/25 10:48:11;;;;;;;;;4.00;3.25;;;;;-143.90;100.00;74312.28;4898142;28;102133;-76
2023/12/25 10:50:40;;;;;;;;;3.50;3.00;;;;;-143.90;100.00;74299.88;4888859;28;102492;-75
2023/12/25 10:53:09;;;;;;;;;9.75;4.50;;;;;-143.90;100.00;74308.13;4902870;28;103967;-77
2023/12/25 10:55:40;;;;;;;;;3.00;3.00;;;;;-143.90;100.00;74304.00;4902744;28;103229;-77
2023/12/25 10:58:16;;;;;;;;;3.00;2.50;;;;;-143.90;100.00;74297.81;4900933;28;102691;-76
2023/12/25 11:00:56;;;;;;;;;2.00;2.00;;;;;-143.90;100.00;74295.75;4893740;28;103031;-78
2023/12/25 11:03:24;;;;;;;;;3.00;2.00;;;;;-143.90;100.00;74308.13;4897148;28;104101;-76